This is the latest recevied weather packets stored in our database for station/object SQ6PCH-10. If no packets are shown the sender has not sent any weather packets the latest 10 day(s).
| Time | Temp. | Humidity | Pressure | Rain* | Wind** | Luminosity | Snow |
|---|---|---|---|---|---|---|---|
| 1777870719 | 13.33° C | 50% | 998.6 hPa | - | - | - | - |
| 1777870119 | 12.78° C | 49% | 998.4 hPa | - | - | - | - |
| 1777869519 | 12.78° C | 49% | 998.4 hPa | - | - | - | - |
| 1777868919 | 12.78° C | 49% | 998.4 hPa | - | - | - | - |
| 1777868319 | 12.22° C | 50% | 998.4 hPa | - | - | - | - |
| 1777867719 | 11.67° C | 52% | 998.5 hPa | - | - | - | - |
| 1777867118 | 11.67° C | 52% | 998.6 hPa | - | - | - | - |
| 1777846712 | 15.56° C | 40% | 998.4 hPa | - | - | - | - |
| 1777843111 | 18.33° C | 33% | 998.5 hPa | - | - | - | - |
| 1777840710 | 18.89° C | 32% | 998.6 hPa | - | - | - | - |
| 1777840110 | 18.89° C | 32% | 998.6 hPa | - | - | - | - |
| 1777839510 | 18.89° C | 32% | 998.6 hPa | - | - | - | - |
| 1777838910 | 18.89° C | 31% | 998.7 hPa | - | - | - | - |
| 1777837109 | 18.89° C | 32% | 998.5 hPa | - | - | - | - |
| 1777835309 | 20° C | 29% | 998.4 hPa | - | - | - | - |
| 1777832308 | 22.22° C | 24% | 998 hPa | - | - | - | - |
| 1777828107 | 26.11° C | 18% | 997.8 hPa | - | - | - | - |
| 1777826306 | 26.67° C | 16% | 997.8 hPa | - | - | - | - |
| 1777825106 | 26.67° C | 15% | 998 hPa | - | - | - | - |
| 1777824506 | 27.22° C | 15% | 998 hPa | - | - | - | - |
| 1777822705 | 27.78° C | 17% | 998.2 hPa | - | - | - | - |
| 1777822105 | 28.33° C | 15% | 998.2 hPa | - | - | - | - |
| 1777821505 | 28.89° C | 16% | 998.4 hPa | - | - | - | - |
| 1777820905 | 28.33° C | 16% | 998.4 hPa | - | - | - | - |
| 1777819104 | 30° C | 14% | 998.8 hPa | - | - | - | - |
* Rain since midnight (hover to see other rain measurements)
** Current wind speed in m/s (hover to see current wind gust speed)